createdAt,value
2018-12-06T00:01:14.781Z,5.30
2018-12-06T00:03:43.708Z,5.30
2018-12-06T00:06:11.843Z,5.20
2018-12-06T00:08:40.118Z,5.20
2018-12-06T00:11:08.258Z,5.20
2018-12-06T00:13:36.539Z,5.20
2018-12-06T00:16:04.729Z,5.30
2018-12-06T00:18:32.858Z,5.30
2018-12-06T00:21:00.994Z,5.30
2018-12-06T00:23:29.217Z,5.20
2018-12-06T00:25:57.411Z,5.30
2018-12-06T00:28:25.637Z,5.30
2018-12-06T00:30:53.761Z,5.30
2018-12-06T00:33:22.026Z,5.30
2018-12-06T00:35:50.158Z,5.30
2018-12-06T00:38:18.395Z,5.30
2018-12-06T00:40:46.663Z,5.30
2018-12-06T00:43:14.873Z,5.30
2018-12-06T00:45:43.648Z,5.40
2018-12-06T00:48:11.900Z,5.30
2018-12-06T00:50:40.015Z,5.40
2018-12-06T00:53:08.220Z,5.40
2018-12-06T00:55:36.417Z,5.40
2018-12-06T00:58:04.623Z,5.40
2018-12-06T01:00:32.805Z,5.40
2018-12-06T01:03:00.937Z,5.40
2018-12-06T01:05:29.060Z,5.50
2018-12-06T01:07:57.183Z,5.50
2018-12-06T01:10:25.309Z,5.50
2018-12-06T01:12:53.504Z,5.50
2018-12-06T01:15:21.756Z,5.60
2018-12-06T01:17:49.960Z,5.60
2018-12-06T01:20:18.218Z,5.60
2018-12-06T01:22:46.522Z,5.60
2018-12-06T01:25:14.769Z,5.70
2018-12-06T01:27:43.224Z,5.70
2018-12-06T01:30:11.593Z,5.70
2018-12-06T01:32:39.718Z,5.70
2018-12-06T01:35:07.985Z,5.80
2018-12-06T01:37:36.109Z,5.80
2018-12-06T01:40:04.400Z,5.80
2018-12-06T01:42:32.511Z,5.80
2018-12-06T01:45:00.773Z,5.70
2018-12-06T01:47:28.892Z,5.70
2018-12-06T01:49:57.024Z,5.70
2018-12-06T01:52:25.201Z,5.60
2018-12-06T01:54:53.397Z,5.60
2018-12-06T01:57:21.599Z,5.60
2018-12-06T01:59:49.722Z,5.60
2018-12-06T02:02:17.983Z,5.70
2018-12-06T02:04:46.185Z,5.70
2018-12-06T02:07:14.293Z,5.70
2018-12-06T02:09:42.560Z,5.80
2018-12-06T02:12:11.379Z,5.80
2018-12-06T02:14:39.524Z,5.80
2018-12-06T02:17:07.716Z,5.80
2018-12-06T02:19:35.841Z,5.80
2018-12-06T02:22:04.090Z,5.80
2018-12-06T02:24:32.294Z,5.80
2018-12-06T02:27:00.485Z,5.80
2018-12-06T02:29:32.956Z,5.80
2018-12-06T02:32:01.154Z,5.80
2018-12-06T02:34:29.341Z,5.80
2018-12-06T02:36:57.560Z,5.80
2018-12-06T02:39:25.683Z,5.70
2018-12-06T02:41:53.881Z,5.70
2018-12-06T02:44:22.013Z,5.70
2018-12-06T02:46:50.142Z,5.70
2018-12-06T02:49:18.326Z,5.70
2018-12-06T02:51:46.448Z,5.70
2018-12-06T02:54:14.634Z,5.80
2018-12-06T02:56:42.767Z,5.80
2018-12-06T02:59:10.962Z,5.80
2018-12-06T03:01:39.084Z,5.80
2018-12-06T03:04:07.282Z,5.80
2018-12-06T03:06:35.429Z,5.80
2018-12-06T03:09:04.801Z,5.80
2018-12-06T03:11:33.014Z,5.80
2018-12-06T03:14:01.203Z,5.80
2018-12-06T03:16:29.402Z,5.90
2018-12-06T03:18:57.594Z,5.80
2018-12-06T03:21:25.803Z,5.90
2018-12-06T03:23:53.946Z,5.80
2018-12-06T03:26:22.165Z,5.90
2018-12-06T03:28:50.368Z,5.80
2018-12-06T03:31:18.585Z,5.90
2018-12-06T03:33:46.813Z,5.90
2018-12-06T03:36:14.983Z,5.90
2018-12-06T03:38:43.190Z,5.90
2018-12-06T03:41:11.541Z,5.90
2018-12-06T03:43:39.773Z,5.90
2018-12-06T03:46:07.969Z,5.90
2018-12-06T03:48:36.170Z,5.90
2018-12-06T03:51:04.358Z,5.90
2018-12-06T03:53:32.545Z,5.80
2018-12-06T03:56:00.728Z,5.80
2018-12-06T03:58:28.921Z,5.80
2018-12-06T04:00:57.179Z,5.90
2018-12-06T04:03:25.376Z,5.90
2018-12-06T04:05:53.561Z,5.90
2018-12-06T04:08:21.689Z,5.90
2018-12-06T04:10:49.827Z,5.90
2018-12-06T04:13:18.053Z,6.00
2018-12-06T04:15:46.164Z,6.00
2018-12-06T04:18:14.300Z,6.00
2018-12-06T04:20:42.415Z,6.00
2018-12-06T04:23:10.695Z,6.00
2018-12-06T04:25:38.878Z,6.00
2018-12-06T04:28:07.069Z,6.10
2018-12-06T04:30:35.198Z,6.00
2018-12-06T04:33:03.398Z,6.00
2018-12-06T04:35:31.621Z,6.10
2018-12-06T04:37:59.762Z,6.00
2018-12-06T04:40:27.940Z,6.10
2018-12-06T04:42:56.055Z,6.10
2018-12-06T04:45:24.176Z,6.10
2018-12-06T04:47:52.373Z,6.10
2018-12-06T04:50:20.505Z,6.10
2018-12-06T04:52:48.721Z,6.10
2018-12-06T04:55:16.910Z,6.10
2018-12-06T04:57:45.022Z,6.10
2018-12-06T05:00:13.226Z,6.10
2018-12-06T05:02:41.414Z,6.10
2018-12-06T05:05:09.861Z,6.10
2018-12-06T05:07:38.189Z,6.20
2018-12-06T05:10:07.273Z,6.10
2018-12-06T05:12:35.393Z,6.20
2018-12-06T05:15:03.790Z,6.20
2018-12-06T05:17:31.967Z,6.20
2018-12-06T05:20:00.157Z,6.20
2018-12-06T05:22:28.268Z,6.20
2018-12-06T05:24:56.821Z,6.20
2018-12-06T05:27:24.955Z,6.30
2018-12-06T05:29:53.141Z,6.30
2018-12-06T05:32:21.348Z,6.30
2018-12-06T05:34:49.588Z,6.30
2018-12-06T05:37:17.769Z,6.30
2018-12-06T05:39:45.972Z,6.40
2018-12-06T05:42:14.089Z,6.40
2018-12-06T05:44:42.213Z,6.40
2018-12-06T05:47:10.325Z,6.30
2018-12-06T05:56:21.581Z,6.30
2018-12-06T05:58:49.684Z,6.30
2018-12-06T06:01:17.821Z,6.30
2018-12-06T06:03:46.002Z,6.30
2018-12-06T06:06:14.124Z,6.30
2018-12-06T06:08:42.250Z,6.30
2018-12-06T06:11:10.409Z,6.30
2018-12-06T06:13:38.517Z,6.30
2018-12-06T06:16:06.645Z,6.30
2018-12-06T06:18:34.834Z,6.30
2018-12-06T06:21:02.960Z,6.30
2018-12-06T06:23:31.085Z,6.30
2018-12-06T06:25:59.273Z,6.30
2018-12-06T06:28:27.463Z,6.30
2018-12-06T06:30:55.728Z,6.30
2018-12-06T06:33:23.911Z,6.30
2018-12-06T06:35:52.033Z,6.30
2018-12-06T06:38:20.163Z,6.30
2018-12-06T06:40:48.330Z,6.30
2018-12-06T06:43:16.424Z,6.40
2018-12-06T06:45:44.551Z,6.40
2018-12-06T06:48:12.738Z,6.30
2018-12-06T06:50:40.942Z,6.30
2018-12-06T06:53:09.053Z,6.40
2018-12-06T06:55:37.252Z,6.40
2018-12-06T06:58:05.360Z,6.40
2018-12-06T07:00:33.619Z,6.40
2018-12-06T07:03:01.830Z,6.50
2018-12-06T07:05:30.024Z,6.40
2018-12-06T07:07:58.201Z,6.50
2018-12-06T07:10:26.417Z,6.50
2018-12-06T07:12:54.562Z,6.50
2018-12-06T07:15:22.841Z,6.60
2018-12-06T07:17:50.961Z,6.60
2018-12-06T07:20:19.152Z,6.60
2018-12-06T07:22:47.404Z,6.60
2018-12-06T07:25:15.580Z,6.60
2018-12-06T07:27:43.777Z,6.70
2018-12-06T07:30:12.576Z,6.70
2018-12-06T07:32:40.973Z,6.70
2018-12-06T07:35:09.222Z,6.70
2018-12-06T07:37:37.344Z,6.70
2018-12-06T07:40:06.088Z,6.70
2018-12-06T07:42:34.224Z,6.70
2018-12-06T07:45:02.416Z,6.70
2018-12-06T07:47:30.544Z,6.70
2018-12-06T07:49:58.664Z,6.70
2018-12-06T07:52:26.873Z,6.70
2018-12-06T07:54:55.072Z,6.70
2018-12-06T07:57:23.182Z,6.70
2018-12-06T07:59:51.373Z,6.70
2018-12-06T08:02:19.689Z,6.70
2018-12-06T08:04:47.898Z,6.80
2018-12-06T08:07:16.053Z,6.80
2018-12-06T08:09:44.253Z,6.80
2018-12-06T08:12:12.465Z,6.80
2018-12-06T08:14:40.649Z,6.80
2018-12-06T08:17:08.784Z,6.80
2018-12-06T08:19:36.933Z,6.90
2018-12-06T08:22:05.190Z,6.90
2018-12-06T08:24:33.300Z,7.00
2018-12-06T08:27:01.479Z,7.00
2018-12-06T08:29:29.686Z,7.00
2018-12-06T08:31:57.875Z,7.10
2018-12-06T08:34:26.003Z,7.10
2018-12-06T08:36:54.191Z,7.10
2018-12-06T08:39:22.383Z,7.10
2018-12-06T08:41:50.576Z,7.20
2018-12-06T08:44:21.490Z,7.20
2018-12-06T08:46:48.942Z,7.20
2018-12-06T08:49:17.150Z,7.30
2018-12-06T08:51:45.702Z,7.30
2018-12-06T08:54:13.942Z,7.30
2018-12-06T08:56:42.125Z,7.30
2018-12-06T08:59:10.233Z,7.30
2018-12-06T09:01:38.426Z,7.40
2018-12-06T09:04:06.623Z,7.40
2018-12-06T09:06:34.881Z,7.50
2018-12-06T09:09:03.733Z,7.50
2018-12-06T09:11:32.008Z,7.60
2018-12-06T09:14:00.136Z,7.60
2018-12-06T09:16:28.322Z,7.70
2018-12-06T09:18:56.513Z,7.70
2018-12-06T09:21:24.624Z,7.80
2018-12-06T09:23:52.784Z,7.90
2018-12-06T09:26:20.903Z,7.90
2018-12-06T09:28:49.090Z,8.00
2018-12-06T09:31:17.281Z,8.00
2018-12-06T09:33:57.013Z,8.10
2018-12-06T09:36:25.278Z,8.10
2018-12-06T09:38:53.394Z,8.20
2018-12-06T09:41:21.521Z,8.20
2018-12-06T09:43:49.711Z,8.20
2018-12-06T09:46:18.001Z,8.30
2018-12-06T09:48:46.251Z,8.30
2018-12-06T09:51:14.483Z,8.30
2018-12-06T09:53:42.698Z,8.30
2018-12-06T09:56:11.035Z,8.30
2018-12-06T09:58:39.289Z,8.30
2018-12-06T10:01:07.516Z,8.40
2018-12-06T10:03:35.705Z,8.40
2018-12-06T10:06:03.898Z,8.40
2018-12-06T10:08:32.110Z,8.40
2018-12-06T10:11:00.309Z,8.40
2018-12-06T10:13:28.430Z,8.40
2018-12-06T10:15:56.620Z,8.50
2018-12-06T10:18:24.805Z,8.50
2018-12-06T10:20:53.005Z,8.50
2018-12-06T10:23:21.200Z,8.50
2018-12-06T10:25:49.566Z,8.50
2018-12-06T10:28:17.704Z,8.50
2018-12-06T10:30:45.824Z,8.60
2018-12-06T10:33:13.969Z,8.60
2018-12-06T10:35:42.237Z,8.60
2018-12-06T10:38:10.372Z,8.60
2018-12-06T10:40:38.492Z,8.70
2018-12-06T10:43:06.636Z,8.70
2018-12-06T10:45:34.756Z,8.70
2018-12-06T10:48:03.021Z,8.70
2018-12-06T10:50:31.128Z,8.80
2018-12-06T10:52:59.938Z,8.80
2018-12-06T10:55:28.058Z,8.90
2018-12-06T10:57:56.263Z,8.90
2018-12-06T11:00:30.129Z,8.90
2018-12-06T11:03:03.808Z,9.00
2018-12-06T11:05:31.997Z,9.00
2018-12-06T11:08:00.187Z,9.00
2018-12-06T11:10:28.386Z,9.10
2018-12-06T11:12:56.589Z,9.10
2018-12-06T11:15:24.861Z,9.10
2018-12-06T11:17:52.987Z,9.10
2018-12-06T11:20:21.109Z,9.10
2018-12-06T11:22:49.245Z,9.20
2018-12-06T11:25:17.476Z,9.20
2018-12-06T11:27:45.610Z,9.20
2018-12-06T11:30:13.516Z,9.20
2018-12-06T11:32:41.718Z,9.30
2018-12-06T11:35:10.018Z,9.30
2018-12-06T11:37:38.153Z,9.30
2018-12-06T11:40:06.735Z,9.30
2018-12-06T11:42:34.942Z,9.30
2018-12-06T11:45:03.269Z,9.30
2018-12-06T11:47:31.393Z,9.30
2018-12-06T11:49:59.523Z,9.40
2018-12-06T11:52:27.739Z,9.40
2018-12-06T11:54:55.857Z,9.30
2018-12-06T11:57:23.980Z,9.40
2018-12-06T11:59:52.176Z,9.30
2018-12-06T12:02:20.383Z,9.30
2018-12-06T12:04:48.521Z,9.30
2018-12-06T12:07:16.782Z,9.30
2018-12-06T12:09:44.911Z,9.30
2018-12-06T12:12:13.117Z,9.30
2018-12-06T12:14:41.313Z,9.30
2018-12-06T12:17:09.509Z,9.30
2018-12-06T12:19:37.713Z,9.30
2018-12-06T12:22:05.877Z,9.30
2018-12-06T12:24:34.063Z,9.40
2018-12-06T12:27:02.172Z,9.40
2018-12-06T12:29:30.357Z,9.40
2018-12-06T12:31:58.669Z,9.50
2018-12-06T12:34:26.853Z,9.40
2018-12-06T12:36:55.041Z,9.50
2018-12-06T12:39:23.179Z,9.50
2018-12-06T12:41:51.374Z,9.50
2018-12-06T12:44:19.582Z,9.50
2018-12-06T12:46:47.769Z,9.50
2018-12-06T12:49:15.961Z,9.60
2018-12-06T12:51:44.095Z,9.60
2018-12-06T12:54:12.309Z,9.60
2018-12-06T12:56:40.523Z,9.60
2018-12-06T12:59:08.714Z,9.60
2018-12-06T13:01:36.849Z,9.70
2018-12-06T13:04:05.079Z,9.70
2018-12-06T13:06:33.278Z,9.70
2018-12-06T13:09:01.389Z,9.80
2018-12-06T13:11:29.686Z,9.80
2018-12-06T13:13:57.814Z,9.80
2018-12-06T13:16:26.008Z,9.80
2018-12-06T13:18:54.193Z,9.80
2018-12-06T13:21:22.386Z,9.80
2018-12-06T13:23:50.569Z,9.90
2018-12-06T13:26:18.858Z,9.90
2018-12-06T13:28:47.147Z,9.90
2018-12-06T13:31:15.354Z,9.90
2018-12-06T13:33:43.735Z,9.90
2018-12-06T13:36:11.942Z,10.00
2018-12-06T13:38:40.131Z,10.00
2018-12-06T13:41:08.433Z,10.00
2018-12-06T13:43:36.565Z,10.10
2018-12-06T13:46:04.878Z,10.10
2018-12-06T13:48:33.213Z,10.10
2018-12-06T13:51:01.371Z,10.10
2018-12-06T13:53:29.661Z,10.10
2018-12-06T13:55:57.797Z,10.10
2018-12-06T13:58:25.918Z,10.10
2018-12-06T14:00:54.398Z,10.20
2018-12-06T14:03:23.701Z,10.10
2018-12-06T14:05:52.094Z,10.20
2018-12-06T14:08:20.281Z,10.20
2018-12-06T14:10:48.427Z,10.20
2018-12-06T14:13:23.460Z,10.20
2018-12-06T14:15:46.833Z,10.20
2018-12-06T14:18:14.958Z,10.30
2018-12-06T14:20:43.143Z,10.30
2018-12-06T14:23:11.353Z,10.30
2018-12-06T14:25:39.542Z,10.40
2018-12-06T14:28:07.762Z,10.40
2018-12-06T14:30:36.034Z,10.40
2018-12-06T14:33:04.286Z,10.50
2018-12-06T14:35:32.490Z,10.40
2018-12-06T14:38:00.798Z,10.50
2018-12-06T14:40:28.993Z,10.50
2018-12-06T14:42:57.464Z,10.50
2018-12-06T14:45:25.729Z,10.50
2018-12-06T14:47:53.875Z,10.50
2018-12-06T14:50:22.152Z,10.60
2018-12-06T14:52:50.409Z,10.60
2018-12-06T14:55:18.673Z,10.60
2018-12-06T14:57:46.810Z,10.60
2018-12-06T15:00:15.170Z,10.60
2018-12-06T15:02:43.458Z,10.60
2018-12-06T15:05:11.661Z,10.60
2018-12-06T15:07:39.857Z,10.70
2018-12-06T15:10:08.470Z,10.70
2018-12-06T15:12:36.627Z,10.60
2018-12-06T15:15:05.431Z,10.60
2018-12-06T15:17:33.746Z,10.60
2018-12-06T15:20:02.015Z,10.60
2018-12-06T15:22:30.193Z,10.60
2018-12-06T15:24:58.647Z,10.60
2018-12-06T15:27:27.165Z,10.50
2018-12-06T15:29:55.501Z,10.50
2018-12-06T15:32:23.684Z,10.50
2018-12-06T15:34:51.975Z,10.50
2018-12-06T15:37:20.093Z,10.50
2018-12-06T15:39:48.301Z,10.40
2018-12-06T15:42:24.876Z,10.40
2018-12-06T15:45:06.518Z,10.40
2018-12-06T15:47:34.697Z,10.40
2018-12-06T15:50:02.958Z,10.40
2018-12-06T15:52:31.250Z,10.40
2018-12-06T15:54:59.455Z,10.40
2018-12-06T15:57:27.797Z,10.40
2018-12-06T15:59:55.937Z,10.40
2018-12-06T16:02:24.079Z,10.40
2018-12-06T16:04:52.282Z,10.40
2018-12-06T16:07:20.473Z,10.40
2018-12-06T16:09:48.707Z,10.40
2018-12-06T16:12:16.986Z,10.40
2018-12-06T16:14:45.229Z,10.40
2018-12-06T16:17:13.492Z,10.40
2018-12-06T16:19:41.786Z,10.50
2018-12-06T16:22:10.117Z,10.50
2018-12-06T16:24:38.459Z,10.50
2018-12-06T16:27:06.697Z,10.50
2018-12-06T16:29:34.975Z,10.60
2018-12-06T16:32:03.169Z,10.60
2018-12-06T16:34:31.436Z,10.60
2018-12-06T16:36:59.565Z,10.60
2018-12-06T16:39:27.803Z,10.60
2018-12-06T16:41:56.144Z,10.60
2018-12-06T16:44:24.446Z,10.60
2018-12-06T16:46:52.719Z,10.70
2018-12-06T16:49:33.044Z,10.70
2018-12-06T16:52:01.522Z,10.70
2018-12-06T16:54:29.722Z,10.70
2018-12-06T16:56:57.986Z,10.70
2018-12-06T16:59:26.129Z,10.70
2018-12-06T17:01:54.526Z,10.70
2018-12-06T17:04:22.827Z,10.70
2018-12-06T17:06:51.143Z,10.70
2018-12-06T17:09:19.385Z,10.70
2018-12-06T17:11:47.673Z,10.80
2018-12-06T17:14:15.844Z,10.80
2018-12-06T17:16:44.180Z,10.80
2018-12-06T17:19:12.538Z,10.70
2018-12-06T17:21:40.790Z,10.70
2018-12-06T17:24:09.168Z,10.80
2018-12-06T17:26:37.482Z,10.80
2018-12-06T17:29:05.741Z,10.70
2018-12-06T17:31:34.058Z,10.80
2018-12-06T17:34:02.333Z,10.80
2018-12-06T17:36:30.505Z,10.80
2018-12-06T17:38:58.633Z,10.80
2018-12-06T17:41:26.866Z,10.80
2018-12-06T17:43:55.330Z,10.80
2018-12-06T17:46:23.617Z,10.80
2018-12-06T17:48:51.857Z,10.90
2018-12-06T17:51:20.229Z,10.90
2018-12-06T17:53:52.219Z,10.90
2018-12-06T17:56:18.593Z,10.90
2018-12-06T17:58:46.768Z,10.90
2018-12-06T18:01:15.013Z,10.90
2018-12-06T18:03:43.331Z,10.90
2018-12-06T18:06:11.712Z,10.90
2018-12-06T18:08:39.909Z,10.90
2018-12-06T18:11:08.265Z,10.90
2018-12-06T18:13:36.569Z,10.90
2018-12-06T18:16:04.900Z,10.90
2018-12-06T18:18:40.245Z,10.90
2018-12-06T18:21:03.582Z,10.90
2018-12-06T18:23:31.834Z,10.90
2018-12-06T18:26:00.205Z,10.90
2018-12-06T18:28:28.641Z,10.90
2018-12-06T18:30:57.009Z,11.00
2018-12-06T18:33:25.221Z,10.90
2018-12-06T18:35:53.574Z,11.00
2018-12-06T18:38:22.402Z,11.00
2018-12-06T18:40:50.741Z,11.00
2018-12-06T18:43:19.766Z,11.00
2018-12-06T18:45:48.244Z,11.00
2018-12-06T18:48:16.591Z,11.00
2018-12-06T18:50:45.070Z,11.00
2018-12-06T18:53:14.006Z,11.00
2018-12-06T18:55:42.230Z,11.00
2018-12-06T18:58:10.622Z,11.00
2018-12-06T19:00:38.954Z,11.00
2018-12-06T19:03:07.291Z,11.00
2018-12-06T19:05:35.583Z,11.00
2018-12-06T19:08:03.902Z,11.00
2018-12-06T19:10:32.225Z,11.00
2018-12-06T19:13:00.556Z,11.00
2018-12-06T19:15:28.766Z,11.00
2018-12-06T19:17:57.115Z,11.00
2018-12-06T19:20:25.465Z,10.90
2018-12-06T19:22:54.195Z,10.90
2018-12-06T19:25:22.622Z,10.90
2018-12-06T19:27:51.000Z,10.90
2018-12-06T19:30:19.355Z,10.90
2018-12-06T19:32:47.687Z,10.90
2018-12-06T19:35:15.984Z,10.90
2018-12-06T19:37:44.537Z,10.90
2018-12-06T19:40:12.890Z,10.90
2018-12-06T19:42:41.174Z,10.90
2018-12-06T19:45:09.547Z,10.90
2018-12-06T19:47:37.760Z,11.00
2018-12-06T19:50:06.497Z,11.00
2018-12-06T19:52:34.719Z,11.00
2018-12-06T19:55:03.148Z,11.00
2018-12-06T19:57:31.361Z,11.00
2018-12-06T19:59:59.597Z,11.00
2018-12-06T20:02:27.918Z,11.00
2018-12-06T20:04:56.311Z,11.00
2018-12-06T20:07:24.570Z,11.00
2018-12-06T20:09:52.926Z,11.00
2018-12-06T20:12:21.378Z,11.00
2018-12-06T20:14:49.606Z,11.00
2018-12-06T20:17:17.881Z,11.00
2018-12-06T20:19:46.248Z,11.00
2018-12-06T20:22:14.569Z,11.00
2018-12-06T20:24:42.963Z,11.00
2018-12-06T20:27:11.231Z,11.10
2018-12-06T20:29:39.611Z,11.00
2018-12-06T20:32:14.524Z,11.00
2018-12-06T20:34:38.434Z,11.00
2018-12-06T20:37:06.728Z,11.00
2018-12-06T20:39:35.019Z,11.00
2018-12-06T20:42:03.383Z,11.10
2018-12-06T20:44:31.814Z,11.00
2018-12-06T20:47:00.042Z,11.00
2018-12-06T20:49:29.271Z,11.00
2018-12-06T20:51:57.573Z,11.00
2018-12-06T20:54:25.774Z,11.00
2018-12-06T20:56:55.149Z,11.00
2018-12-06T20:59:24.604Z,11.10
2018-12-06T21:01:52.895Z,11.00
2018-12-06T21:04:21.105Z,11.00
2018-12-06T21:06:49.285Z,11.00
2018-12-06T21:09:18.692Z,11.10
2018-12-06T21:11:47.185Z,11.10
2018-12-06T21:14:21.924Z,11.10
2018-12-06T21:16:45.713Z,11.10
2018-12-06T21:19:13.958Z,11.10
2018-12-06T21:21:42.173Z,11.10
2018-12-06T21:24:10.456Z,11.20
2018-12-06T21:26:38.600Z,11.20
2018-12-06T21:29:06.729Z,11.20
2018-12-06T21:31:34.882Z,11.20
2018-12-06T21:34:03.158Z,11.20
2018-12-06T21:36:31.305Z,11.20
2018-12-06T21:38:59.455Z,11.30
2018-12-06T21:41:27.683Z,11.30
2018-12-06T21:43:55.975Z,11.30
2018-12-06T21:46:24.290Z,11.30
2018-12-06T21:48:52.481Z,11.30
2018-12-06T21:51:20.742Z,11.30
2018-12-06T21:53:48.949Z,11.40
2018-12-06T21:56:17.070Z,11.30
2018-12-06T21:58:45.209Z,11.40
2018-12-06T22:01:13.323Z,11.40
2018-12-06T22:03:41.525Z,11.40
2018-12-06T22:06:09.638Z,11.40
2018-12-06T22:08:37.897Z,11.40
2018-12-06T22:11:06.047Z,11.40
2018-12-06T22:13:34.178Z,11.40
2018-12-06T22:16:02.381Z,11.40
2018-12-06T22:18:30.650Z,11.40
2018-12-06T22:20:58.773Z,11.30
2018-12-06T22:23:27.378Z,11.40
2018-12-06T22:25:55.504Z,11.40
2018-12-06T22:28:23.737Z,11.40
2018-12-06T22:30:52.045Z,11.40
2018-12-06T22:33:20.163Z,11.40
2018-12-06T22:35:48.377Z,11.40
2018-12-06T22:38:16.509Z,11.40
2018-12-06T22:40:44.637Z,11.40
2018-12-06T22:43:12.835Z,11.40
2018-12-06T22:45:57.688Z,11.40
2018-12-06T22:48:26.048Z,11.40
2018-12-06T22:50:54.308Z,11.40
2018-12-06T22:53:22.554Z,11.40
2018-12-06T22:55:50.773Z,11.30
2018-12-06T22:58:19.045Z,11.40
2018-12-06T23:00:52.290Z,11.30
2018-12-06T23:03:22.224Z,11.40
2018-12-06T23:05:51.601Z,11.40
2018-12-06T23:08:19.969Z,11.40
2018-12-06T23:10:48.264Z,11.40
2018-12-06T23:13:16.521Z,11.40
2018-12-06T23:15:44.809Z,11.50
2018-12-06T23:18:13.009Z,11.50
2018-12-06T23:20:41.270Z,11.50
2018-12-06T23:23:09.393Z,11.50
2018-12-06T23:25:37.661Z,11.50
2018-12-06T23:28:05.933Z,11.60
2018-12-06T23:30:34.187Z,11.60
2018-12-06T23:33:02.330Z,11.50
2018-12-06T23:35:30.467Z,11.60
2018-12-06T23:37:58.590Z,11.60
2018-12-06T23:40:26.875Z,11.60
2018-12-06T23:42:55.129Z,11.60
2018-12-06T23:45:23.245Z,11.60
2018-12-06T23:47:51.382Z,11.60
2018-12-06T23:50:19.562Z,11.60
2018-12-06T23:52:47.773Z,11.60
2018-12-06T23:55:16.026Z,11.60
2018-12-06T23:57:44.157Z,11.50
